createdAt,value
2019-04-22T00:02:06.035Z,27.61
2019-04-22T00:04:51.305Z,27.79
2019-04-22T00:07:35.887Z,27.84
2019-04-22T00:10:13.472Z,27.62
2019-04-22T00:15:20.211Z,28.37
2019-04-22T00:18:11.642Z,28.10
2019-04-22T00:20:35.511Z,28.51
2019-04-22T00:23:03.669Z,28.54
2019-04-22T00:25:48.022Z,28.31
2019-04-22T00:28:24.856Z,28.55
2019-04-22T00:30:56.210Z,28.66
2019-04-22T00:33:32.401Z,28.65
2019-04-22T00:36:08.643Z,28.74
2019-04-22T00:38:44.171Z,28.86
2019-04-22T00:41:23.227Z,29.23
2019-04-22T00:43:59.581Z,29.50
2019-04-22T00:46:36.155Z,29.66
2019-04-22T00:49:52.470Z,29.94
2019-04-22T00:51:52.410Z,30.40
2019-04-22T00:54:15.677Z,30.39
2019-04-22T00:56:47.479Z,30.51
2019-04-22T00:59:47.091Z,30.97
2019-04-22T01:02:07.286Z,31.90
2019-04-22T01:04:40.589Z,32.22
2019-04-22T01:07:17.579Z,31.66
2019-04-22T01:09:51.807Z,32.42
2019-04-22T01:12:26.327Z,32.32
2019-04-22T01:15:00.894Z,32.19
2019-04-22T01:17:38.800Z,31.78
2019-04-22T01:20:38.754Z,31.58
2019-04-22T01:22:46.163Z,31.77
2019-04-22T01:25:18.924Z,32.33
2019-04-22T01:27:54.425Z,32.49
2019-04-22T01:30:24.156Z,32.64
2019-04-22T01:32:51.048Z,33.30
2019-04-22T01:35:37.781Z,33.81
2019-04-22T01:38:13.364Z,33.17
2019-04-22T01:41:04.555Z,33.17
2019-04-22T01:43:40.957Z,32.45
2019-04-22T01:46:08.322Z,32.01
2019-04-22T01:48:50.632Z,32.32
2019-04-22T01:51:28.337Z,32.05
2019-04-22T01:54:00.510Z,31.92
2019-04-22T01:56:35.672Z,32.52
2019-04-22T01:58:59.006Z,32.96
2019-04-22T02:04:30.298Z,32.21
2019-04-22T02:06:57.627Z,32.94
2019-04-22T02:12:05.933Z,32.86
2019-04-22T02:17:17.674Z,33.61
2019-04-22T02:22:47.628Z,34.04
2019-04-22T02:25:12.167Z,34.34
2019-04-22T02:27:43.722Z,35.53
2019-04-22T02:30:16.441Z,35.82
2019-04-22T02:33:25.491Z,35.24
2019-04-22T02:35:36.479Z,35.40
2019-04-22T02:38:14.009Z,35.51
2019-04-22T02:40:56.388Z,34.88
2019-04-22T02:43:26.142Z,34.59
2019-04-22T02:46:15.670Z,34.95
2019-04-22T02:48:48.331Z,35.42
2019-04-22T02:56:27.527Z,37.14
2019-04-22T03:06:38.544Z,40.05
2019-04-22T03:09:22.338Z,40.86
2019-04-22T03:11:56.666Z,41.56
2019-04-22T03:14:22.872Z,42.20
2019-04-22T03:17:06.128Z,42.79
2019-04-22T03:25:09.692Z,43.36
2019-04-22T03:27:36.865Z,45.41
2019-04-22T03:30:41.723Z,46.19
2019-04-22T03:38:07.251Z,50.68
2019-04-22T03:40:46.397Z,51.02
2019-04-22T03:46:02.078Z,51.87
2019-04-22T03:48:15.875Z,52.80
2019-04-22T03:51:08.011Z,53.46
2019-04-22T03:53:33.342Z,53.62
2019-04-22T03:56:28.618Z,54.35
2019-04-22T03:58:51.604Z,54.14
2019-04-22T04:01:30.550Z,54.11
2019-04-22T04:04:09.351Z,54.14
2019-04-22T04:06:56.199Z,54.36
2019-04-22T04:09:19.553Z,54.76
2019-04-22T04:14:33.491Z,54.73
2019-04-22T04:27:48.908Z,58.82
2019-04-22T04:30:09.965Z,58.77
2019-04-22T04:42:54.224Z,59.17
2019-04-22T04:45:40.958Z,59.21
2019-04-22T04:48:01.142Z,59.01
2019-04-22T04:50:51.067Z,57.75
2019-04-22T04:53:24.401Z,56.22
2019-04-22T04:55:55.345Z,53.21
2019-04-22T04:58:46.903Z,54.37
2019-04-22T05:01:24.709Z,54.13
2019-04-22T05:03:49.851Z,55.87
2019-04-22T05:06:21.738Z,57.46
2019-04-22T05:11:43.054Z,58.15
2019-04-22T05:19:15.946Z,57.54
2019-04-22T05:21:50.638Z,57.68
2019-04-22T05:24:26.236Z,57.03
2019-04-22T05:26:57.071Z,57.08
2019-04-22T05:29:41.919Z,56.68
2019-04-22T05:32:03.057Z,56.31
2019-04-22T05:34:42.861Z,56.37
2019-04-22T05:37:14.578Z,56.17
2019-04-22T05:39:52.674Z,55.66
2019-04-22T05:42:23.454Z,55.54
2019-04-22T05:45:05.230Z,54.72
2019-04-22T05:47:35.237Z,54.44
2019-04-22T05:50:13.142Z,54.14
2019-04-22T05:52:52.665Z,52.98
2019-04-22T05:55:30.577Z,52.98
2019-04-22T05:58:01.353Z,52.26
2019-04-22T06:01:03.951Z,51.01
2019-04-22T06:03:11.995Z,49.94
2019-04-22T06:05:47.220Z,46.11
2019-04-22T06:08:23.344Z,43.05
2019-04-22T06:10:58.089Z,39.49
2019-04-22T06:13:36.614Z,36.48
2019-04-22T06:16:09.424Z,34.09
2019-04-22T06:18:54.892Z,32.51
2019-04-22T06:21:27.832Z,31.17
2019-04-22T06:24:04.815Z,30.88
2019-04-22T06:26:46.277Z,30.67
2019-04-22T06:29:17.400Z,30.68
2019-04-22T06:32:15.119Z,30.64
2019-04-22T06:34:27.108Z,29.72
2019-04-22T06:37:08.622Z,29.76
2019-04-22T06:39:34.201Z,28.55
2019-04-22T06:44:54.943Z,29.25
2019-04-22T06:47:40.080Z,28.92
2019-04-22T06:50:07.761Z,28.75
2019-04-22T06:52:38.315Z,28.03
2019-04-22T06:55:23.222Z,27.03
2019-04-22T06:57:53.600Z,27.29
2019-04-22T07:00:32.116Z,26.66
2019-04-22T07:05:43.693Z,26.18
2019-04-22T07:08:48.038Z,25.88
2019-04-22T07:10:50.308Z,26.02
2019-04-22T07:13:27.449Z,26.18
2019-04-22T07:16:00.595Z,25.88
2019-04-22T07:18:35.972Z,26.21
2019-04-22T07:21:06.611Z,27.86
2019-04-22T07:23:54.306Z,26.81
2019-04-22T07:26:23.096Z,27.56
2019-04-22T07:28:59.074Z,27.31
2019-04-22T07:31:35.665Z,26.80
2019-04-22T07:34:14.542Z,26.26
2019-04-22T07:36:55.168Z,27.36
2019-04-22T07:39:23.157Z,27.47
2019-04-22T07:41:59.178Z,26.60
2019-04-22T07:44:36.951Z,26.39
2019-04-22T07:47:17.429Z,26.80
2019-04-22T07:49:46.965Z,26.67
2019-04-22T07:52:24.489Z,26.87
2019-04-22T07:54:58.518Z,26.78
2019-04-22T07:57:32.615Z,26.49
2019-04-22T08:00:17.530Z,25.42
2019-04-22T08:02:51.154Z,25.29
2019-04-22T08:05:24.534Z,25.50
2019-04-22T08:07:59.430Z,25.34
2019-04-22T08:10:49.967Z,25.74
2019-04-22T08:13:11.887Z,25.37
2019-04-22T08:15:48.523Z,25.61
2019-04-22T08:18:21.905Z,25.65
2019-04-22T08:20:56.593Z,26.52
2019-04-22T08:23:31.675Z,27.93
2019-04-22T08:26:05.543Z,28.03
2019-04-22T08:28:45.801Z,28.14
2019-04-22T08:31:27.084Z,27.63
2019-04-22T08:33:54.354Z,27.38
2019-04-22T08:37:10.333Z,27.17
2019-04-22T08:39:08.197Z,27.29
2019-04-22T08:41:43.542Z,27.58
2019-04-22T08:44:11.195Z,28.05
2019-04-22T08:46:50.907Z,26.34
2019-04-22T08:49:30.202Z,27.26
2019-04-22T08:52:01.396Z,26.02
2019-04-22T08:54:40.993Z,26.52
2019-04-22T08:57:11.128Z,26.09
2019-04-22T08:59:50.028Z,26.25
2019-04-22T09:02:25.766Z,25.80
2019-04-22T09:04:53.933Z,25.19
2019-04-22T09:07:34.548Z,25.73
2019-04-22T09:10:10.307Z,24.65
2019-04-22T09:12:57.864Z,25.41
2019-04-22T09:15:20.462Z,24.79
2019-04-22T09:17:59.207Z,24.57
2019-04-22T09:20:32.909Z,24.21
2019-04-22T09:23:12.278Z,23.81
2019-04-22T09:25:43.638Z,24.21
2019-04-22T09:28:20.456Z,23.91
2019-04-22T09:30:58.583Z,23.64
2019-04-22T09:33:27.535Z,24.29
2019-04-22T09:36:16.514Z,23.44
2019-04-22T09:41:25.332Z,23.00
2019-04-22T09:43:52.968Z,22.03
2019-04-22T09:46:33.059Z,22.54
2019-04-22T09:49:06.512Z,22.85
2019-04-22T09:51:36.873Z,21.83
2019-04-22T09:54:14.436Z,22.40
2019-04-22T09:56:49.450Z,21.76
2019-04-22T09:59:20.459Z,21.92
2019-04-22T10:02:13.233Z,21.54
2019-04-22T10:04:33.092Z,21.10
2019-04-22T10:07:13.843Z,21.75
2019-04-22T10:10:04.712Z,21.19
2019-04-22T10:12:19.334Z,21.16
2019-04-22T10:14:55.923Z,21.70
2019-04-22T10:17:31.636Z,20.88
2019-04-22T10:20:05.613Z,21.42
2019-04-22T10:25:21.605Z,20.75
2019-04-22T10:27:59.955Z,20.84
2019-04-22T10:30:33.864Z,20.51
2019-04-22T10:32:59.196Z,20.76
2019-04-22T10:35:18.884Z,19.97
2019-04-22T10:37:50.056Z,20.24
2019-04-22T10:40:28.235Z,20.39
2019-04-22T10:43:03.596Z,20.91
2019-04-22T10:45:37.693Z,21.53
2019-04-22T10:48:12.394Z,20.98
2019-04-22T10:50:48.748Z,21.40
2019-04-22T10:53:23.778Z,20.41
2019-04-22T10:56:00.961Z,21.54
2019-04-22T10:58:35.002Z,21.15
2019-04-22T11:01:09.610Z,21.17
2019-04-22T11:03:43.379Z,20.71
2019-04-22T11:06:17.185Z,21.21
2019-04-22T11:08:56.214Z,20.94
2019-04-22T11:11:41.564Z,21.00
2019-04-22T11:14:01.999Z,20.32
2019-04-22T11:16:35.687Z,20.93
2019-04-22T11:19:09.820Z,20.32
2019-04-22T11:21:56.102Z,20.24
2019-04-22T11:24:18.918Z,20.03
2019-04-22T11:26:52.834Z,19.89
2019-04-22T11:29:27.829Z,19.74
2019-04-22T11:32:02.173Z,20.22
2019-04-22T11:34:39.415Z,18.88
2019-04-22T11:37:14.537Z,19.30
2019-04-22T11:40:02.159Z,18.86
2019-04-22T11:42:23.942Z,18.84
2019-04-22T11:44:57.487Z,18.85
2019-04-22T11:47:31.131Z,18.34
2019-04-22T11:50:08.071Z,18.97
2019-04-22T11:52:42.611Z,19.09
2019-04-22T11:55:17.063Z,18.76
2019-04-22T11:57:51.923Z,17.73
2019-04-22T12:00:28.089Z,18.20
2019-04-22T12:03:03.031Z,18.86
2019-04-22T12:05:37.577Z,18.50
2019-04-22T12:08:11.393Z,18.38
2019-04-22T12:10:51.559Z,18.72
2019-04-22T12:13:20.188Z,20.13
2019-04-22T12:15:53.789Z,19.00
2019-04-22T12:18:27.317Z,18.33
2019-04-22T12:21:01.352Z,18.60
2019-04-22T12:23:34.991Z,19.17
2019-04-22T12:26:16.723Z,18.12
2019-04-22T12:28:47.196Z,17.42
2019-04-22T12:31:21.818Z,17.64
2019-04-22T12:33:55.433Z,17.65
2019-04-22T12:36:29.021Z,17.83
2019-04-22T12:39:03.306Z,17.14
2019-04-22T12:41:38.257Z,16.95
2019-04-22T12:44:11.794Z,16.12
2019-04-22T12:46:46.184Z,17.42
2019-04-22T12:49:20.373Z,17.32
2019-04-22T12:51:54.802Z,17.69
2019-04-22T12:54:29.076Z,17.72
2019-04-22T12:57:03.975Z,18.20
2019-04-22T12:59:37.579Z,18.51
2019-04-22T13:02:11.286Z,19.11
2019-04-22T13:04:45.982Z,18.49
2019-04-22T13:07:19.972Z,19.01
2019-04-22T13:09:55.140Z,18.47
2019-04-22T13:12:29.109Z,18.33
2019-04-22T13:15:09.880Z,18.57
2019-04-22T13:17:44.337Z,18.89
2019-04-22T13:20:19.818Z,18.85
2019-04-22T13:22:54.619Z,18.62
2019-04-22T13:25:31.884Z,18.47
2019-04-22T13:28:04.985Z,18.77
2019-04-22T13:30:38.882Z,18.43
2019-04-22T13:33:12.731Z,18.93
2019-04-22T13:35:47.836Z,19.61
2019-04-22T13:38:22.750Z,19.84
2019-04-22T13:41:07.276Z,19.47
2019-04-22T13:43:32.727Z,20.13
2019-04-22T13:46:06.360Z,20.56
2019-04-22T13:49:13.172Z,20.18
2019-04-22T13:51:45.047Z,19.75
2019-04-22T13:56:47.993Z,19.22
2019-04-22T13:59:12.654Z,19.18
2019-04-22T14:01:38.592Z,17.93
2019-04-22T14:04:16.862Z,18.11
2019-04-22T14:06:50.544Z,18.49
2019-04-22T14:09:24.511Z,18.41
2019-04-22T14:12:03.785Z,17.80
2019-04-22T14:17:20.831Z,17.80
2019-04-22T14:19:58.019Z,17.73
2019-04-22T14:22:38.829Z,17.97
2019-04-22T14:25:16.510Z,18.77
2019-04-22T14:28:01.983Z,19.19
2019-04-22T14:30:46.406Z,18.65
2019-04-22T14:33:25.801Z,18.62
2019-04-22T14:36:04.977Z,19.28
2019-04-22T14:38:41.904Z,18.58
2019-04-22T14:47:45.017Z,18.10
2019-04-22T14:50:19.931Z,18.21
2019-04-22T14:52:52.316Z,18.25
2019-04-22T14:55:16.992Z,17.57
2019-04-22T14:57:44.558Z,17.57
2019-04-22T15:00:23.987Z,17.70
2019-04-22T15:03:05.898Z,17.50
2019-04-22T15:05:48.173Z,17.61
2019-04-22T15:08:25.043Z,17.25
2019-04-22T15:11:06.287Z,17.99
2019-04-22T15:13:45.260Z,17.30
2019-04-22T15:16:36.370Z,18.61
2019-04-22T15:19:33.861Z,18.34
2019-04-22T15:22:36.814Z,18.69
2019-04-22T15:25:26.524Z,18.04
2019-04-22T15:31:15.187Z,17.39
2019-04-22T15:34:10.268Z,18.07
2019-04-22T15:37:04.297Z,17.63
2019-04-22T15:39:41.994Z,18.46
2019-04-22T15:42:28.111Z,18.01
2019-04-22T15:44:59.963Z,17.61
2019-04-22T15:47:34.768Z,18.05
2019-04-22T15:50:10.088Z,17.64
2019-04-22T15:52:49.605Z,17.78
2019-04-22T15:55:20.596Z,18.77
2019-04-22T15:57:54.570Z,18.03
2019-04-22T16:00:38.262Z,18.45
2019-04-22T16:03:08.049Z,18.45
2019-04-22T16:05:39.634Z,16.83
2019-04-22T16:08:14.855Z,17.13
2019-04-22T16:10:48.637Z,17.62
2019-04-22T16:13:26.495Z,18.05
2019-04-22T16:15:58.521Z,18.62
2019-04-22T16:18:32.604Z,18.33
2019-04-22T16:21:07.156Z,18.03
2019-04-22T16:23:50.038Z,17.82
2019-04-22T16:26:42.389Z,18.31
2019-04-22T16:29:16.690Z,18.15
2019-04-22T16:31:51.515Z,18.83
2019-04-22T16:34:25.300Z,18.82
2019-04-22T16:37:00.721Z,18.49
2019-04-22T16:39:34.353Z,18.06
2019-04-22T16:42:08.951Z,17.67
2019-04-22T16:44:43.530Z,16.67
2019-04-22T16:47:17.710Z,16.77
2019-04-22T16:49:55.292Z,17.11
2019-04-22T16:52:30.144Z,16.68
2019-04-22T16:55:05.358Z,16.84
2019-04-22T16:57:39.814Z,17.17
2019-04-22T17:00:16.438Z,16.72
2019-04-22T17:03:08.893Z,16.97
2019-04-22T17:06:01.361Z,16.56
2019-04-22T17:08:34.992Z,17.09
2019-04-22T17:11:09.738Z,17.44
2019-04-22T17:13:44.592Z,17.36
2019-04-22T17:16:20.187Z,17.21
2019-04-22T17:18:54.224Z,17.33
2019-04-22T17:21:28.129Z,17.76
2019-04-22T17:24:01.741Z,18.30
2019-04-22T17:26:36.623Z,18.56
2019-04-22T17:29:10.443Z,19.10
2019-04-22T17:31:52.794Z,19.40
2019-04-22T17:34:19.035Z,19.55
2019-04-22T17:36:53.215Z,19.74
2019-04-22T17:39:42.721Z,19.69
2019-04-22T17:42:28.216Z,20.00
2019-04-22T17:45:16.398Z,20.14
2019-04-22T17:47:58.975Z,20.60
2019-04-22T17:50:46.698Z,20.74
2019-04-22T17:53:23.065Z,20.78
2019-04-22T17:55:55.795Z,20.93
2019-04-22T17:58:25.731Z,20.91
2019-04-22T18:01:04.330Z,21.32
2019-04-22T18:03:30.667Z,21.73
2019-04-22T18:05:59.482Z,21.72
2019-04-22T18:08:45.944Z,22.35
2019-04-22T18:11:29.269Z,22.19
2019-04-22T18:14:15.720Z,22.39
2019-04-22T18:16:40.393Z,22.84
2019-04-22T18:19:13.502Z,22.81
2019-04-22T18:21:41.206Z,23.19
2019-04-22T18:24:07.934Z,23.35
2019-04-22T18:26:55.590Z,24.03
2019-04-22T18:29:27.689Z,24.15
2019-04-22T18:31:55.554Z,23.99
2019-04-22T18:34:37.585Z,23.59
2019-04-22T18:37:13.060Z,24.04
2019-04-22T18:39:58.964Z,24.49
2019-04-22T18:42:26.811Z,24.61
2019-04-22T18:45:23.358Z,24.39
2019-04-22T18:47:38.730Z,24.64
2019-04-22T18:50:22.549Z,25.49
2019-04-22T18:52:53.032Z,25.30
2019-04-22T18:55:31.551Z,25.28
2019-04-22T18:58:06.700Z,25.33
2019-04-22T19:00:31.721Z,25.52
2019-04-22T19:03:13.476Z,25.60
2019-04-22T19:06:09.524Z,25.81
2019-04-22T19:08:36.719Z,26.16
2019-04-22T19:11:11.229Z,26.42
2019-04-22T19:14:03.357Z,25.87
2019-04-22T19:16:31.065Z,25.93
2019-04-22T19:19:21.245Z,25.93
2019-04-22T19:21:32.703Z,25.34
2019-04-22T19:24:04.016Z,25.53
2019-04-22T19:26:55.850Z,26.04
2019-04-22T19:29:22.394Z,26.06
2019-04-22T19:31:56.965Z,26.36
2019-04-22T19:34:31.724Z,25.57
2019-04-22T19:37:07.113Z,25.66
2019-04-22T19:39:41.149Z,26.37
2019-04-22T19:42:25.325Z,26.30
2019-04-22T19:44:58.722Z,26.34
2019-04-22T19:47:33.681Z,26.04
2019-04-22T19:50:11.423Z,26.16
2019-04-22T19:52:40.323Z,26.17
2019-04-22T19:55:18.198Z,24.97
2019-04-22T19:57:52.567Z,25.16
2019-04-22T20:00:28.810Z,24.55
2019-04-22T20:03:36.200Z,25.30
2019-04-22T20:06:02.206Z,24.89
2019-04-22T20:08:34.221Z,24.67
2019-04-22T20:11:17.005Z,25.73
2019-04-22T20:13:47.935Z,25.32
2019-04-22T20:16:20.191Z,25.11
2019-04-22T20:18:59.545Z,25.71
2019-04-22T20:21:38.686Z,25.57
2019-04-22T20:23:57.160Z,25.42
2019-04-22T20:26:50.101Z,24.98
2019-04-22T20:29:27.217Z,25.18
2019-04-22T20:31:54.075Z,25.34
2019-04-22T20:34:33.787Z,24.73
2019-04-22T20:37:10.714Z,25.13
2019-04-22T20:39:44.344Z,25.23
2019-04-22T20:42:31.366Z,25.28
2019-04-22T20:44:55.056Z,24.82
2019-04-22T20:47:25.131Z,25.42
2019-04-22T20:50:02.845Z,25.76
2019-04-22T20:52:38.666Z,25.75
2019-04-22T20:55:08.210Z,25.52
2019-04-22T20:57:49.530Z,25.43
2019-04-22T21:00:16.901Z,24.94
2019-04-22T21:02:50.440Z,24.68
2019-04-22T21:05:26.814Z,25.31
2019-04-22T21:08:12.588Z,25.07
2019-04-22T21:10:37.437Z,25.08
2019-04-22T21:13:13.922Z,25.56
2019-04-22T21:15:57.967Z,26.01
2019-04-22T21:18:26.554Z,25.91
2019-04-22T21:21:11.859Z,26.28
2019-04-22T21:23:35.113Z,26.46
2019-04-22T21:26:13.847Z,26.31
2019-04-22T21:28:47.680Z,26.02
2019-04-22T21:31:29.624Z,26.02
2019-04-22T21:33:56.144Z,27.22
2019-04-22T21:36:56.009Z,27.22
2019-04-22T21:39:08.251Z,27.27
2019-04-22T21:41:46.831Z,27.37
2019-04-22T21:44:21.267Z,27.23
2019-04-22T21:47:04.374Z,27.49
2019-04-22T21:49:37.237Z,27.97
2019-04-22T21:52:07.896Z,28.18
2019-04-22T21:54:46.954Z,27.96
2019-04-22T21:57:27.752Z,28.22
2019-04-22T22:00:07.817Z,27.85
2019-04-22T22:02:41.135Z,28.13
2019-04-22T22:05:08.660Z,28.48
2019-04-22T22:07:29.562Z,28.40
2019-04-22T22:10:24.580Z,28.40
2019-04-22T22:13:00.311Z,28.92
2019-04-22T22:15:37.670Z,28.69
2019-04-22T22:18:08.687Z,29.41
2019-04-22T22:21:02.213Z,28.92
2019-04-22T22:23:25.406Z,28.91
2019-04-22T22:25:52.342Z,28.88
2019-04-22T22:28:45.033Z,28.54
2019-04-22T22:31:16.846Z,28.31
2019-04-22T22:33:44.616Z,28.62
2019-04-22T22:36:14.648Z,28.71
2019-04-22T22:38:46.979Z,28.61
2019-04-22T22:41:07.848Z,28.71
2019-04-22T22:43:47.091Z,29.04
2019-04-22T22:46:29.344Z,29.04
2019-04-22T22:49:18.593Z,28.70
2019-04-22T22:52:00.101Z,29.27
2019-04-22T22:54:30.369Z,28.95
2019-04-22T22:57:08.856Z,29.15
2019-04-22T22:59:38.673Z,29.60
2019-04-22T23:02:11.588Z,28.87
2019-04-22T23:04:51.167Z,29.46
2019-04-22T23:07:28.892Z,30.00
2019-04-22T23:10:01.051Z,30.13
2019-04-22T23:15:09.364Z,31.22
2019-04-22T23:17:29.896Z,30.86
2019-04-22T23:20:03.470Z,31.10
2019-04-22T23:23:04.178Z,30.78
2019-04-22T23:25:33.990Z,30.92
2019-04-22T23:28:01.520Z,30.68
2019-04-22T23:30:51.184Z,30.94
2019-04-22T23:33:37.849Z,31.06
2019-04-22T23:36:12.807Z,31.41
2019-04-22T23:38:57.265Z,31.48
2019-04-22T23:41:51.340Z,31.89
2019-04-22T23:44:13.811Z,30.79
2019-04-22T23:46:51.785Z,31.27
2019-04-22T23:49:26.747Z,31.40
2019-04-22T23:52:08.863Z,31.57
2019-04-22T23:54:50.949Z,31.69
2019-04-22T23:57:24.179Z,31.87
